Time;durP1;ratioP1;P1;durP2;ratioP2;P2;SDS_P1;SDS_P2;PMS_P1;PMS_P2;Temp;Humidity;BMP_temperature;BMP_pressure;BME280_temperature;BME280_humidity;BME280_pressure;Samples;Min_cycle;Max_cycle;Signal;HPM_P1;HPM_P2
2022/07/31 00:01:58;;;;;;;;;;;;;;;29.13;36.29;94620.81;4973381;28;7551;-61
2022/07/31 00:04:24;;;;;;;;;;;;;;;29.13;36.39;94625.59;4975981;28;6998;-61
2022/07/31 00:06:50;;;;;;;;;;;;;;;29.12;36.72;94629.66;4977008;28;7179;-61
2022/07/31 00:09:19;;;;;;;;;;;;;;;29.10;36.50;94622.63;4991356;28;9211;-61
2022/07/31 00:11:45;;;;;;;;;;;;;;;29.10;36.86;94622.63;4974979;28;7440;-61
2022/07/31 00:14:11;;;;;;;;;;;;;;;29.09;36.45;94617.59;4992305;28;9489;-61
2022/07/31 00:16:52;;;;;;;;;;;;;;;29.05;36.44;94612.38;4974651;28;9222;-61
2022/07/31 00:19:31;;;;;;;;;;;;;;;29.04;36.85;94610.13;4975270;28;7077;-61
2022/07/31 00:21:57;;;;;;;;;;;;;;;29.06;37.03;94615.88;4991111;28;7311;-61
2022/07/31 00:24:25;;;;;;;;;;;;;;;29.05;36.78;94614.41;4991294;28;7024;-61
2022/07/31 00:26:52;;;;;;;;;;;;;;;29.07;37.26;94612.59;4964724;28;9434;-61
2022/07/31 00:29:20;;;;;;;;;;;;;;;29.04;36.85;94610.88;4969757;28;7265;-61
2022/07/31 00:31:46;;;;;;;;;;;;;;;29.05;36.89;94609.63;4969583;28;7413;-61
2022/07/31 00:34:12;;;;;;;;;;;;;;;29.02;36.77;94602.34;4969988;28;7226;-61
2022/07/31 00:36:38;;;;;;;;;;;;;;;29.03;37.37;94612.19;4993774;28;7267;-61
2022/07/31 00:39:09;;;;;;;;;;;;;;;29.03;36.22;94603.13;5010970;28;9028;-61
2022/07/31 00:41:44;;;;;;;;;;;;;;;29.01;37.15;94606.38;5031177;28;7534;-61
2022/07/31 00:44:30;;;;;;;;;;;;;;;28.98;36.79;94607.47;5030733;28;7208;-61
2022/07/31 00:46:56;;;;;;;;;;;;;;;29.00;36.71;94613.22;5044190;28;6984;-61
2022/07/31 00:49:23;;;;;;;;;;;;;;;29.02;37.06;94604.38;5027768;28;9032;-61
2022/07/31 00:51:50;;;;;;;;;;;;;;;29.01;36.95;94603.63;5026225;28;8657;-61
2022/07/31 00:54:16;;;;;;;;;;;;;;;29.03;36.98;94606.63;5042956;28;8894;-61
2022/07/31 00:56:42;;;;;;;;;;;;;;;29.02;36.84;94594.06;5027824;28;9046;-61
2022/07/31 00:59:11;;;;;;;;;;;;;;;29.03;36.99;94600.34;5043220;28;8029;-61
2022/07/31 01:01:37;;;;;;;;;;;;;;;29.04;36.53;94596.28;5023717;28;8754;-61
2022/07/31 01:04:05;;;;;;;;;;;;;;;29.03;36.76;94601.09;5026795;28;6928;-61
2022/07/31 01:06:31;;;;;;;;;;;;;;;29.02;36.94;94599.59;5009655;28;8805;-61
2022/07/31 01:08:57;;;;;;;;;;;;;;;29.01;36.93;94597.34;5047677;28;8733;-61
2022/07/31 01:15:10;;;;;;;;;;;;;;;29.00;36.98;94602.13;5032494;28;7466;-61
2022/07/31 01:17:57;;;;;;;;;;;;;;;29.00;36.83;94595.84;5029727;28;7063;-61
2022/07/31 01:20:41;;;;;;;;;;;;;;;28.99;37.18;94595.09;5048528;28;10005;-61
2022/07/31 01:27:02;;;;;;;;;;;;;;;28.98;36.94;94593.63;4980392;28;7456;-61
2022/07/31 01:29:55;;;;;;;;;;;;;;;28.97;37.40;94580.31;4981068;28;7348;-61
2022/07/31 01:32:52;;;;;;;;;;;;;;;28.98;37.24;94582.53;4979418;28;7460;-61
2022/07/31 01:35:25;;;;;;;;;;;;;;;28.97;37.39;94586.56;4980793;28;9112;-61
2022/07/31 01:38:24;;;;;;;;;;;;;;;28.98;36.62;94588.06;4978288;28;7183;-61
2022/07/31 01:41:31;;;;;;;;;;;;;;;28.98;37.10;94592.88;4993713;28;7027;-61
2022/07/31 01:44:16;;;;;;;;;;;;;;;28.96;36.93;94587.88;4949694;28;9337;-61
2022/07/31 01:46:47;;;;;;;;;;;;;;;28.95;37.12;94594.66;4968159;28;7468;-61
2022/07/31 01:49:41;;;;;;;;;;;;;;;28.96;36.95;94590.63;4984036;28;9119;-61
2022/07/31 01:52:13;;;;;;;;;;;;;;;28.96;37.10;94584.34;4961878;28;9083;-61
2022/07/31 01:54:46;;;;;;;;;;;;;;;28.95;37.29;94582.84;4967924;28;7219;-61
2022/07/31 01:57:36;;;;;;;;;;;;;;;28.94;37.11;94593.19;4975924;28;7140;-61
2022/07/31 02:00:07;;;;;;;;;;;;;;;28.93;37.37;94580.59;4952391;28;7193;-61
2022/07/31 02:02:35;;;;;;;;;;;;;;;28.93;37.06;94583.38;4984804;28;7531;-61
2022/07/31 02:05:06;;;;;;;;;;;;;;;28.93;36.77;94586.13;4969779;28;7248;-61
2022/07/31 02:07:40;;;;;;;;;;;;;;;28.93;36.73;94588.91;4986490;28;9164;-61
2022/07/31 02:10:13;;;;;;;;;;;;;;;28.94;36.82;94595.94;4988849;28;7345;-61
2022/07/31 02:13:14;;;;;;;;;;;;;;;28.94;37.28;94597.97;4964955;28;7234;-61
2022/07/31 02:15:41;;;;;;;;;;;;;;;28.93;37.19;94602.00;4979224;28;7236;-61
2022/07/31 02:18:09;;;;;;;;;;;;;;;28.92;36.95;94598.50;4980060;28;7226;-61
2022/07/31 02:20:38;;;;;;;;;;;;;;;28.92;37.64;94594.97;4983562;28;7220;-61
2022/07/31 02:23:06;;;;;;;;;;;;;;;28.92;37.36;94601.28;4983086;28;7284;-61
2022/07/31 02:25:35;;;;;;;;;;;;;;;28.90;36.77;94595.53;4967451;28;7532;-61
2022/07/31 02:28:12;;;;;;;;;;;;;;;28.91;37.66;94594.22;4986255;28;6984;-61
2022/07/31 02:30:50;;;;;;;;;;;;;;;28.89;37.82;94596.78;4989273;28;9063;-61
2022/07/31 02:33:22;;;;;;;;;;;;;;;28.91;37.07;94599.00;4987712;28;8800;-61
2022/07/31 02:35:53;;;;;;;;;;;;;;;28.89;37.51;94596.78;4968252;28;9191;-61
2022/07/31 02:38:22;;;;;;;;;;;;;;;28.90;37.27;94595.53;4982830;28;8811;-61
2022/07/31 02:40:52;;;;;;;;;;;;;;;28.90;37.20;94586.47;4983754;28;7403;-61
2022/07/31 02:43:19;;;;;;;;;;;;;;;28.88;37.55;94586.97;4983578;28;7005;-61
2022/07/31 02:45:46;;;;;;;;;;;;;;;28.89;37.21;94587.72;4983795;28;9155;-61
2022/07/31 02:48:26;;;;;;;;;;;;;;;28.90;37.38;94589.22;4987388;28;7150;-62
2022/07/31 02:50:56;;;;;;;;;;;;;;;28.89;36.83;94590.50;4986540;28;7354;-61
2022/07/31 02:53:24;;;;;;;;;;;;;;;28.90;37.29;94598.28;5042606;28;7022;-61
2022/07/31 02:55:51;;;;;;;;;;;;;;;28.91;36.97;94597.00;5029113;28;7260;-61
2022/07/31 02:58:30;;;;;;;;;;;;;;;28.89;37.14;94596.78;5028630;28;8168;-61
2022/07/31 03:01:01;;;;;;;;;;;;;;;28.88;37.21;94589.75;5029222;28;7187;-61
2022/07/31 03:03:29;;;;;;;;;;;;;;;28.88;37.32;94595.28;5027940;28;9555;-61
2022/07/31 03:05:55;;;;;;;;;;;;;;;28.89;37.27;94601.56;5010908;28;7052;-61
2022/07/31 03:08:21;;;;;;;;;;;;;;;28.88;37.39;94600.81;5026349;28;7262;-61
2022/07/31 03:10:47;;;;;;;;;;;;;;;28.86;36.94;94597.81;5043140;28;9543;-61
2022/07/31 03:13:20;;;;;;;;;;;;;;;28.86;37.26;94606.13;5028043;28;7453;-61
2022/07/31 03:15:48;;;;;;;;;;;;;;;28.86;37.34;94597.81;5029095;28;7506;-61
2022/07/31 03:18:20;;;;;;;;;;;;;;;28.86;37.18;94595.06;5011616;28;7138;-61
2022/07/31 03:21:24;;;;;;;;;;;;;;;28.87;37.39;94599.34;5044550;28;7058;-61
2022/07/31 03:23:50;;;;;;;;;;;;;;;28.85;37.02;94590.81;4993380;28;9221;-61
2022/07/31 03:26:17;;;;;;;;;;;;;;;28.84;37.78;94589.31;4996504;28;8779;-61
2022/07/31 03:29:14;;;;;;;;;;;;;;;28.85;37.45;94587.28;4996383;28;7249;-61
2022/07/31 03:31:40;;;;;;;;;;;;;;;28.84;37.25;94588.56;4933190;29;7214;-61
2022/07/31 03:34:06;;;;;;;;;;;;;;;28.84;37.78;94589.31;4931856;29;7895;-61
2022/07/31 03:37:03;;;;;;;;;;;;;;;28.84;37.29;94585.81;4916767;29;6852;-61
2022/07/31 03:39:31;;;;;;;;;;;;;;;28.82;37.55;94580.78;4915222;29;7656;-61
2022/07/31 03:42:17;;;;;;;;;;;;;;;28.82;37.16;94586.31;4915410;29;7033;-61
2022/07/31 03:44:55;;;;;;;;;;;;;;;28.81;37.41;94587.59;4914551;29;7208;-61
2022/07/31 03:47:40;;;;;;;;;;;;;;;28.82;37.57;94585.56;4915027;29;7121;-61
2022/07/31 03:50:07;;;;;;;;;;;;;;;28.82;37.26;94580.78;4900312;29;7676;-61
2022/07/31 03:52:38;;;;;;;;;;;;;;;28.82;37.58;94580.03;4914500;29;7413;-61
2022/07/31 03:55:17;;;;;;;;;;;;;;;28.81;37.47;94587.59;4914150;29;7338;-61
2022/07/31 03:57:54;;;;;;;;;;;;;;;28.81;37.02;94584.84;4904795;29;7116;-61
2022/07/31 04:00:26;;;;;;;;;;;;;;;28.81;37.42;94587.59;4915270;29;7010;-61
2022/07/31 04:02:57;;;;;;;;;;;;;;;28.81;37.00;94586.84;4915892;29;7267;-61
2022/07/31 04:05:26;;;;;;;;;;;;;;;28.80;37.28;94588.88;4912045;29;9133;-61
2022/07/31 04:07:51;;;;;;;;;;;;;;;28.80;37.70;94588.13;4949208;28;7017;-61
2022/07/31 04:10:17;;;;;;;;;;;;;;;28.78;37.73;94580.34;4981488;28;9293;-61
2022/07/31 04:12:43;;;;;;;;;;;;;;;28.78;37.64;94585.88;4966809;28;7088;-61
2022/07/31 04:15:11;;;;;;;;;;;;;;;28.79;37.05;94583.88;4976289;28;7166;-61
2022/07/31 04:17:40;;;;;;;;;;;;;;;28.78;37.30;94590.66;5043781;28;9329;-61
2022/07/31 04:20:06;;;;;;;;;;;;;;;28.79;37.46;94594.94;5028325;28;9233;-61
2022/07/31 04:22:40;;;;;;;;;;;;;;;28.77;37.18;94589.94;5049888;28;7463;-61
2022/07/31 04:25:09;;;;;;;;;;;;;;;28.78;37.40;94596.19;5031129;28;7513;-61
2022/07/31 04:27:54;;;;;;;;;;;;;;;28.77;37.68;94595.47;5033596;28;8747;-61
2022/07/31 04:30:31;;;;;;;;;;;;;;;28.75;37.57;94586.94;5034842;28;9094;-61
2022/07/31 04:33:03;;;;;;;;;;;;;;;28.76;38.00;94593.97;5048344;28;7233;-61
2022/07/31 04:35:39;;;;;;;;;;;;;;;28.78;37.36;94598.97;5015263;28;9098;-61
2022/07/31 04:38:10;;;;;;;;;;;;;;;28.78;37.53;94596.19;5033478;28;7268;-61
2022/07/31 04:40:50;;;;;;;;;;;;;;;28.76;37.25;94602.28;5033043;28;9274;-61
2022/07/31 04:43:18;;;;;;;;;;;;;;;28.76;37.22;94602.28;5028216;28;8763;-61
2022/07/31 04:45:44;;;;;;;;;;;;;;;28.76;37.97;94593.97;5045616;28;7516;-61
2022/07/31 04:48:10;;;;;;;;;;;;;;;28.75;37.28;94591.75;5031114;28;7059;-61
2022/07/31 04:50:41;;;;;;;;;;;;;;;28.77;37.72;94601.00;5048210;28;9095;-61
2022/07/31 04:53:34;;;;;;;;;;;;;;;28.78;37.61;94596.19;5032717;28;7212;-61
2022/07/31 04:59:05;;;;;;;;;;;;;;;28.77;37.28;94594.72;4972172;28;7318;-61
2022/07/31 05:01:33;;;;;;;;;;;;;;;28.77;37.18;94591.94;4971176;28;7330;-61
2022/07/31 05:04:00;;;;;;;;;;;;;;;28.76;37.37;94598.75;4971085;28;7080;-61
2022/07/31 05:06:52;;;;;;;;;;;;;;;28.75;37.65;94595.22;4967056;28;7237;-61
2022/07/31 05:09:23;;;;;;;;;;;;;;;28.74;37.66;94590.97;4926144;29;7312;-61
2022/07/31 05:11:50;;;;;;;;;;;;;;;28.74;37.43;94579.91;4910980;29;9693;-61
2022/07/31 05:14:19;;;;;;;;;;;;;;;28.76;37.56;94588.44;4928447;29;7132;-61
2022/07/31 05:16:47;;;;;;;;;;;;;;;28.74;37.04;94579.91;4926949;29;8972;-61
2022/07/31 05:19:13;;;;;;;;;;;;;;;28.77;38.12;94584.41;4927619;29;7242;-61
2022/07/31 05:21:41;;;;;;;;;;;;;;;28.76;37.57;94590.44;4920907;29;7065;-61
2022/07/31 05:24:10;;;;;;;;;;;;;;;28.77;37.80;94595.47;4926689;29;7418;-61
2022/07/31 05:26:39;;;;;;;;;;;;;;;28.77;37.37;94589.94;4926828;29;7076;-61
2022/07/31 05:29:08;;;;;;;;;;;;;;;28.77;37.65;94595.47;4927678;29;7302;-61
2022/07/31 05:31:34;;;;;;;;;;;;;;;28.76;37.49;94593.22;4927116;29;9073;-61
2022/07/31 05:34:01;;;;;;;;;;;;;;;28.76;37.69;94595.97;4963956;28;6857;-61
2022/07/31 05:36:27;;;;;;;;;;;;;;;28.76;37.42;94593.22;4963269;28;7170;-61
2022/07/31 05:38:53;;;;;;;;;;;;;;;28.76;37.89;94593.22;4965037;28;9468;-61
2022/07/31 05:41:19;;;;;;;;;;;;;;;28.74;37.13;94593.00;4964129;28;9333;-61
2022/07/31 05:43:46;;;;;;;;;;;;;;;28.72;37.48;94599.06;4979587;28;7202;-61
2022/07/31 05:46:16;;;;;;;;;;;;;;;28.72;37.39;94593.53;4978214;28;9519;-61
2022/07/31 05:48:43;;;;;;;;;;;;;;;28.72;37.67;94606.63;5025726;28;8841;-61
2022/07/31 05:51:12;;;;;;;;;;;;;;;28.70;37.79;94596.09;5025696;28;8804;-61
2022/07/31 05:53:39;;;;;;;;;;;;;;;28.70;37.31;94596.09;5025886;28;9047;-61
2022/07/31 05:56:08;;;;;;;;;;;;;;;28.73;37.22;94600.56;5006678;28;7626;-61
2022/07/31 05:58:36;;;;;;;;;;;;;;;28.74;37.67;94604.06;5007852;28;6974;-61
2022/07/31 06:01:05;;;;;;;;;;;;;;;28.74;37.45;94607.59;5007604;28;9507;-61
2022/07/31 06:03:39;;;;;;;;;;;;;;;28.72;37.76;94603.84;5025247;28;9039;-61
2022/07/31 06:06:07;;;;;;;;;;;;;;;28.73;37.22;94608.13;5026637;28;8789;-61
2022/07/31 06:08:35;;;;;;;;;;;;;;;28.73;37.67;94611.63;5030294;28;9077;-61
2022/07/31 06:11:01;;;;;;;;;;;;;;;28.72;37.63;94612.91;5046206;28;9028;-61
2022/07/31 06:13:36;;;;;;;;;;;;;;;28.71;37.34;94608.63;5031958;28;9166;-61
2022/07/31 06:16:10;;;;;;;;;;;;;;;28.70;37.37;94614.72;5030134;28;9488;-61
2022/07/31 06:18:56;;;;;;;;;;;;;;;28.70;37.19;94609.91;5029398;28;9424;-61
2022/07/31 06:21:31;;;;;;;;;;;;;;;28.68;37.86;94606.19;5014108;28;9152;-61
2022/07/31 06:24:19;;;;;;;;;;;;;;;28.69;37.45;94611.19;5013213;28;8464;-63
2022/07/31 06:26:56;;;;;;;;;;;;;;;28.69;37.58;94611.19;5030082;28;7000;-63
2022/07/31 06:29:34;;;;;;;;;;;;;;;28.69;37.80;94616.72;5031614;28;7282;-63
2022/07/31 06:32:02;;;;;;;;;;;;;;;28.69;37.40;94610.44;5026075;28;9021;-63
2022/07/31 06:34:28;;;;;;;;;;;;;;;28.69;37.90;94618.72;5046115;28;8905;-63
2022/07/31 06:36:58;;;;;;;;;;;;;;;28.69;37.99;94621.50;5047238;28;8253;-63
2022/07/31 06:39:27;;;;;;;;;;;;;;;28.68;38.06;94620.78;5012166;28;7076;-63
2022/07/31 06:42:03;;;;;;;;;;;;;;;28.69;38.24;94625.03;5046653;28;7410;-62
2022/07/31 06:44:51;;;;;;;;;;;;;;;28.70;37.65;94620.25;5047261;28;7645;-63
2022/07/31 06:47:21;;;;;;;;;;;;;;;28.69;37.90;94619.50;5045504;28;7723;-63
2022/07/31 06:50:08;;;;;;;;;;;;;;;28.69;37.75;94616.72;5045456;28;7149;-63
2022/07/31 06:52:53;;;;;;;;;;;;;;;28.68;37.82;94614.50;5046480;28;9112;-63
2022/07/31 06:55:30;;;;;;;;;;;;;;;28.68;38.16;94615.25;5030894;28;9460;-63
2022/07/31 06:58:13;;;;;;;;;;;;;;;28.67;37.93;94608.19;5047873;28;9070;-63
2022/07/31 07:00:42;;;;;;;;;;;;;;;28.68;37.92;94626.31;5034178;28;7047;-63
2022/07/31 07:03:08;;;;;;;;;;;;;;;28.68;37.93;94620.78;5033570;28;9686;-63
2022/07/31 07:05:34;;;;;;;;;;;;;;;28.68;38.09;94629.09;5035217;28;7374;-63
2022/07/31 07:08:00;;;;;;;;;;;;;;;28.67;37.72;94622.03;5019147;28;7298;-63
2022/07/31 07:10:29;;;;;;;;;;;;;;;28.68;38.25;94623.53;5017054;28;7296;-63
2022/07/31 07:13:03;;;;;;;;;;;;;;;28.69;38.13;94621.50;5049410;28;9173;-63
2022/07/31 07:15:31;;;;;;;;;;;;;;;28.68;37.76;94625.56;5035204;28;7248;-63
2022/07/31 07:18:25;;;;;;;;;;;;;;;28.68;37.78;94626.31;5033835;28;9262;-63
2022/07/31 07:20:51;;;;;;;;;;;;;;;28.68;37.62;94626.31;4938427;28;7234;-63
2022/07/31 07:23:32;;;;;;;;;;;;;;;28.67;37.81;94627.56;4967924;28;8932;-63
2022/07/31 07:25:59;;;;;;;;;;;;;;;28.68;37.73;94625.56;4953131;28;9226;-63
2022/07/31 07:28:26;;;;;;;;;;;;;;;28.69;38.22;94624.28;4938299;28;7200;-63
2022/07/31 07:34:22;;;;;;;;;;;;;;;28.69;37.53;94621.50;4974338;28;7207;-60
2022/07/31 07:37:01;;;;;;;;;;;;;;;28.69;37.54;94616.72;4973824;28;9058;-61
2022/07/31 07:39:27;;;;;;;;;;;;;;;28.70;38.12;94618.22;4969212;28;7169;-61
2022/07/31 07:42:03;;;;;;;;;;;;;;;28.69;38.30;94613.19;4964371;28;9499;-60
2022/07/31 07:44:39;;;;;;;;;;;;;;;28.65;38.00;94607.22;4969987;28;8274;-61
2022/07/31 07:47:08;;;;;;;;;;;;;;;28.68;37.79;94608.94;4968031;28;7236;-61
2022/07/31 07:49:38;;;;;;;;;;;;;;;28.68;38.10;94598.63;4963891;28;7303;-61
2022/07/31 07:52:05;;;;;;;;;;;;;;;28.68;38.03;94606.19;4945072;28;7989;-60
2022/07/31 07:54:31;;;;;;;;;;;;;;;28.69;38.03;94604.91;4965688;28;7023;-61
2022/07/31 07:56:57;;;;;;;;;;;;;;;28.68;37.85;94600.66;4973155;28;7189;-64
2022/07/31 07:59:24;;;;;;;;;;;;;;;28.70;37.93;94601.63;5003620;28;7283;-65
2022/07/31 08:01:50;;;;;;;;;;;;;;;28.68;37.85;94597.88;4989248;28;7259;-63
2022/07/31 08:04:16;;;;;;;;;;;;;;;28.70;38.03;94598.84;5005561;28;7174;-63
2022/07/31 08:06:42;;;;;;;;;;;;;;;28.70;37.78;94600.88;5002784;28;8868;-63
2022/07/31 08:09:08;;;;;;;;;;;;;;;28.69;38.00;94597.34;4989267;28;7286;-63
2022/07/31 08:11:33;;;;;;;;;;;;;;;28.70;37.88;94603.63;5017588;28;7439;-61
2022/07/31 08:14:04;;;;;;;;;;;;;;;28.69;38.15;94599.34;5025234;28;9067;-61
2022/07/31 08:16:34;;;;;;;;;;;;;;;28.71;38.43;94594.78;5028515;28;7863;-61
2022/07/31 08:19:00;;;;;;;;;;;;;;;28.71;37.98;94599.59;5026653;28;8870;-61
2022/07/31 08:21:29;;;;;;;;;;;;;;;28.71;37.89;94592.03;5043128;28;9277;-60
2022/07/31 08:23:55;;;;;;;;;;;;;;;28.72;37.92;94599.06;5041883;28;7015;-61
2022/07/31 08:26:20;;;;;;;;;;;;;;;28.73;37.93;94600.56;5026228;28;7200;-61
2022/07/31 08:28:50;;;;;;;;;;;;;;;28.72;37.84;94599.06;5026775;28;7491;-61
2022/07/31 08:31:18;;;;;;;;;;;;;;;28.72;38.22;94601.09;5026548;28;9486;-61
2022/07/31 08:33:52;;;;;;;;;;;;;;;28.73;38.49;94595.00;5044195;28;9136;-61
2022/07/31 08:36:18;;;;;;;;;;;;;;;28.74;38.25;94602.06;5012824;28;7536;-60
2022/07/31 08:38:44;;;;;;;;;;;;;;;28.71;38.17;94603.09;5030364;28;7274;-61
2022/07/31 08:41:13;;;;;;;;;;;;;;;28.72;37.93;94596.31;5029656;28;7475;-61
2022/07/31 08:43:41;;;;;;;;;;;;;;;28.74;37.92;94602.06;5028090;28;7214;-60
2022/07/31 08:46:10;;;;;;;;;;;;;;;28.73;38.59;94599.81;5003818;28;7182;-61
2022/07/31 08:48:39;;;;;;;;;;;;;;;28.74;37.95;94604.06;5010950;28;7055;-61
2022/07/31 08:51:11;;;;;;;;;;;;;;;28.74;38.26;94593.75;5027401;28;7173;-63
2022/07/31 08:53:47;;;;;;;;;;;;;;;28.73;37.63;94597.78;5026532;28;7072;-63
2022/07/31 08:56:15;;;;;;;;;;;;;;;28.75;37.90;94594.50;5032701;28;9223;-63
2022/07/31 08:58:43;;;;;;;;;;;;;;;28.75;38.33;94602.81;5014337;28;7313;-63
2022/07/31 09:01:18;;;;;;;;;;;;;;;28.75;38.11;94600.78;5031973;28;7046;-63
2022/07/31 09:03:44;;;;;;;;;;;;;;;28.76;38.07;94591.19;5048002;28;7338;-63
2022/07/31 09:06:10;;;;;;;;;;;;;;;28.77;37.89;94592.72;5027019;28;8909;-63
2022/07/31 09:08:40;;;;;;;;;;;;;;;28.76;37.80;94587.69;5015462;28;7050;-63
2022/07/31 09:11:12;;;;;;;;;;;;;;;28.77;38.25;94598.25;5014389;28;7611;-63
2022/07/31 09:13:39;;;;;;;;;;;;;;;28.76;37.82;94602.28;5014444;28;7016;-63
2022/07/31 09:16:06;;;;;;;;;;;;;;;28.77;38.29;94606.56;5013878;28;7968;-63
2022/07/31 09:18:32;;;;;;;;;;;;;;;28.78;38.23;94608.03;5029918;28;7020;-63
2022/07/31 09:21:04;;;;;;;;;;;;;;;28.78;37.97;94608.03;5029386;28;9007;-63
2022/07/31 09:23:31;;;;;;;;;;;;;;;28.79;38.02;94609.53;5026273;28;7267;-63
2022/07/31 09:26:03;;;;;;;;;;;;;;;28.80;38.33;94613.78;5009775;28;9050;-63
2022/07/31 09:28:44;;;;;;;;;;;;;;;28.80;38.17;94619.31;5010341;28;9055;-63
2022/07/31 09:31:12;;;;;;;;;;;;;;;28.81;37.85;94617.31;5027638;28;9015;-63
2022/07/31 09:33:44;;;;;;;;;;;;;;;28.80;37.77;94613.03;5025441;28;9422;-63
2022/07/31 09:36:14;;;;;;;;;;;;;;;28.81;37.87;94615.28;5041476;28;7280;-63
2022/07/31 09:38:41;;;;;;;;;;;;;;;28.82;38.25;94607.72;5006728;28;8251;-63
2022/07/31 09:41:12;;;;;;;;;;;;;;;28.82;38.30;94608.47;5026241;28;9978;-63
2022/07/31 09:43:39;;;;;;;;;;;;;;;28.83;37.83;94612.75;5007665;28;9618;-63
2022/07/31 09:46:07;;;;;;;;;;;;;;;28.84;37.82;94608.69;5025772;28;9019;-63
2022/07/31 09:48:34;;;;;;;;;;;;;;;28.86;37.62;94614.44;5009483;28;7637;-63
2022/07/31 09:51:08;;;;;;;;;;;;;;;28.84;38.08;94605.91;5028362;28;7924;-63
2022/07/31 09:53:58;;;;;;;;;;;;;;;28.86;38.06;94613.72;5029658;28;8573;-63
2022/07/31 09:56:33;;;;;;;;;;;;;;;28.87;37.75;94615.94;5047531;28;9174;-63
2022/07/31 09:59:09;;;;;;;;;;;;;;;28.85;38.28;94610.19;5030143;28;7198;-63
2022/07/31 10:01:39;;;;;;;;;;;;;;;28.88;38.09;94611.16;5030879;28;7066;-63
2022/07/31 10:04:06;;;;;;;;;;;;;;;28.89;37.94;94610.63;5013876;28;7073;-63
2022/07/31 10:06:34;;;;;;;;;;;;;;;28.91;37.71;94605.31;5031247;28;7053;-63
2022/07/31 10:09:03;;;;;;;;;;;;;;;28.90;38.06;94603.81;5030071;28;7240;-63
2022/07/31 10:11:31;;;;;;;;;;;;;;;28.92;38.17;94601.28;5030423;28;9785;-63
2022/07/31 10:14:22;;;;;;;;;;;;;;;28.90;38.29;94601.06;5031277;28;7320;-63
2022/07/31 10:17:03;;;;;;;;;;;;;;;28.93;38.20;94590.94;5031923;28;7481;-63
2022/07/31 10:19:36;;;;;;;;;;;;;;;28.95;37.66;94600.19;5029896;28;7992;-63
2022/07/31 10:22:17;;;;;;;;;;;;;;;28.96;38.09;94596.16;5046981;28;7210;-63
2022/07/31 10:24:47;;;;;;;;;;;;;;;28.97;38.25;94597.66;5031205;28;8969;-63
2022/07/31 10:27:17;;;;;;;;;;;;;;;28.97;37.42;94599.69;5046915;28;7228;-63
2022/07/31 10:30:02;;;;;;;;;;;;;;;28.99;37.72;94594.38;5014274;28;6980;-60
2022/07/31 10:32:28;;;;;;;;;;;;;;;29.00;38.38;94598.63;5030136;28;7059;-61
2022/07/31 10:35:13;;;;;;;;;;;;;;;29.00;38.24;94596.59;5032546;28;7093;-61
2022/07/31 10:37:46;;;;;;;;;;;;;;;29.03;37.83;94589.25;5031294;28;9326;-61
2022/07/31 10:40:21;;;;;;;;;;;;;;;29.03;37.98;94595.56;5046263;28;8782;-61
2022/07/31 10:42:50;;;;;;;;;;;;;;;29.04;37.75;94588.72;5046584;28;7246;-60
2022/07/31 10:45:16;;;;;;;;;;;;;;;29.05;37.81;94587.47;5028764;28;7487;-61
2022/07/31 10:48:05;;;;;;;;;;;;;;;29.06;38.13;94582.66;5026625;28;9133;-61
2022/07/31 10:50:32;;;;;;;;;;;;;;;29.06;37.86;94586.16;5027426;28;7002;-61
2022/07/31 10:53:27;;;;;;;;;;;;;;;29.07;37.89;94584.91;5029354;28;7374;-60
2022/07/31 10:56:01;;;;;;;;;;;;;;;29.06;38.12;94583.41;5007143;28;9220;-61
2022/07/31 10:58:32;;;;;;;;;;;;;;;29.06;37.56;94577.09;4991680;28;7528;-61
2022/07/31 11:01:11;;;;;;;;;;;;;;;29.09;38.45;94578.84;5009689;28;7132;-61
2022/07/31 11:03:43;;;;;;;;;;;;;;;29.09;38.00;94567.75;4996068;28;7048;-60
2022/07/31 11:06:14;;;;;;;;;;;;;;;29.09;38.27;94576.06;5013023;28;7711;-60
2022/07/31 11:08:45;;;;;;;;;;;;;;;29.09;38.10;94571.28;5012560;28;8549;-60
2022/07/31 11:11:13;;;;;;;;;;;;;;;29.12;38.28;94565.94;5012974;28;9137;-61
2022/07/31 11:14:18;;;;;;;;;;;;;;;29.10;37.68;94566.50;5011589;28;8518;-61
2022/07/31 11:16:58;;;;;;;;;;;;;;;29.10;38.08;94561.69;5012517;28;7127;-60
2022/07/31 11:19:49;;;;;;;;;;;;;;;29.12;37.91;94571.50;4995480;28;7238;-61
2022/07/31 11:22:16;;;;;;;;;;;;;;;29.12;38.40;94560.41;5011831;28;7661;-60
2022/07/31 11:25:02;;;;;;;;;;;;;;;29.12;38.54;94555.63;5011628;28;9080;-60
2022/07/31 11:27:37;;;;;;;;;;;;;;;29.13;38.55;94553.59;5013354;28;9251;-60
2022/07/31 11:30:05;;;;;;;;;;;;;;;29.11;38.37;94548.59;5011244;28;7423;-61
2022/07/31 11:32:35;;;;;;;;;;;;;;;29.12;38.00;94554.88;5010649;28;8962;-60
2022/07/31 11:35:02;;;;;;;;;;;;;;;29.13;38.01;94553.59;5028974;28;7127;-60
2022/07/31 11:37:30;;;;;;;;;;;;;;;29.16;38.12;94552.53;5045094;28;7073;-60
2022/07/31 11:39:58;;;;;;;;;;;;;;;29.14;38.14;94552.31;5047352;28;7138;-60
2022/07/31 11:42:27;;;;;;;;;;;;;;;29.13;38.05;94554.34;5012849;28;7060;-61
2022/07/31 11:45:01;;;;;;;;;;;;;;;29.12;37.99;94552.84;5009149;28;7236;-60
2022/07/31 11:47:38;;;;;;;;;;;;;;;29.13;38.74;94548.78;5042413;28;7202;-60
2022/07/31 11:50:09;;;;;;;;;;;;;;;29.13;38.36;94557.09;5026442;28;7579;-61
2022/07/31 11:52:36;;;;;;;;;;;;;;;29.15;37.83;94551.03;5027117;28;7268;-61
2022/07/31 11:55:09;;;;;;;;;;;;;;;29.19;37.89;94545.97;5028502;28;7006;-61
2022/07/31 11:57:45;;;;;;;;;;;;;;;29.18;38.29;94544.47;5016073;28;9433;-61
2022/07/31 12:00:15;;;;;;;;;;;;;;;29.22;37.99;94542.13;5048788;28;9265;-61
2022/07/31 12:02:44;;;;;;;;;;;;;;;29.22;38.05;94536.56;5032900;28;7244;-60
2022/07/31 12:05:12;;;;;;;;;;;;;;;29.23;38.25;94533.28;5031436;28;9146;-60
2022/07/31 12:07:43;;;;;;;;;;;;;;;29.26;37.85;94537.75;5015196;28;7150;-60
2022/07/31 12:10:11;;;;;;;;;;;;;;;29.26;38.16;94540.53;5015787;28;7238;-60
2022/07/31 12:12:43;;;;;;;;;;;;;;;29.27;38.29;94536.50;5029884;28;8897;-60
2022/07/31 12:15:18;;;;;;;;;;;;;;;29.28;38.15;94531.69;5047447;28;7283;-61
2022/07/31 12:18:28;;;;;;;;;;;;;;;29.27;38.20;94532.97;5032832;28;9067;-61
2022/07/31 12:20:56;;;;;;;;;;;;;;;29.29;38.94;94524.88;4971687;28;7252;-61
2022/07/31 12:23:41;;;;;;;;;;;;;;;29.30;38.51;94523.56;4964827;28;7077;-61
2022/07/31 12:26:28;;;;;;;;;;;;;;;29.29;37.77;94522.09;4971816;28;7105;-61
2022/07/31 12:29:11;;;;;;;;;;;;;;;29.29;38.00;94519.31;4971472;28;7026;-61
2022/07/31 12:31:43;;;;;;;;;;;;;;;29.27;38.05;94524.66;4950655;28;7204;-61
2022/07/31 12:34:10;;;;;;;;;;;;;;;29.26;38.50;94517.59;4971887;28;7332;-61
2022/07/31 12:36:36;;;;;;;;;;;;;;;29.27;38.51;94510.81;4971211;28;7137;-60
2022/07/31 12:39:04;;;;;;;;;;;;;;;29.28;38.65;94520.59;4953879;28;7858;-61
2022/07/31 12:42:05;;;;;;;;;;;;;;;29.29;37.94;94522.09;4953509;28;7317;-61
2022/07/31 12:44:34;;;;;;;;;;;;;;;29.30;38.28;94518.78;4908737;29;7281;-61
2022/07/31 12:47:01;;;;;;;;;;;;;;;29.30;38.12;94524.31;4922624;29;7378;-61
2022/07/31 12:49:30;;;;;;;;;;;;;;;29.32;38.38;94512.72;4907193;29;9062;-61
2022/07/31 12:51:56;;;;;;;;;;;;;;;29.32;39.15;94519.00;4922188;29;9238;-61
2022/07/31 12:54:31;;;;;;;;;;;;;;;29.34;38.86;94510.19;4905050;29;7098;-61
2022/07/31 12:57:02;;;;;;;;;;;;;;;29.35;38.75;94501.31;4928741;28;7252;-61
2022/07/31 12:59:39;;;;;;;;;;;;;;;29.35;38.73;94495.78;4981795;28;7251;-61
2022/07/31 13:02:11;;;;;;;;;;;;;;;29.36;38.69;94500.03;4979802;28;9225;-61
2022/07/31 13:04:39;;;;;;;;;;;;;;;29.38;38.83;94502.28;4977863;28;9246;-61
2022/07/31 13:07:06;;;;;;;;;;;;;;;29.41;38.46;94498.44;4978684;28;7249;-61
2022/07/31 13:09:32;;;;;;;;;;;;;;;29.42;38.59;94497.16;4976728;28;7165;-61
2022/07/31 13:12:08;;;;;;;;;;;;;;;29.41;38.24;94484.56;4977844;28;7327;-61
2022/07/31 13:14:35;;;;;;;;;;;;;;;29.41;37.97;94488.09;4978145;28;7234;-61
2022/07/31 13:17:01;;;;;;;;;;;;;;;29.41;38.61;94490.13;4979661;28;7243;-61
2022/07/31 13:19:32;;;;;;;;;;;;;;;29.42;38.57;94481.28;5025046;28;8488;-61
2022/07/31 13:22:01;;;;;;;;;;;;;;;29.42;38.66;94483.31;5015378;28;7441;-61
2022/07/31 13:24:28;;;;;;;;;;;;;;;29.42;38.89;94477.75;5031497;28;9032;-61
2022/07/31 13:26:57;;;;;;;;;;;;;;;29.42;38.45;94475.75;5030184;28;9340;-61
2022/07/31 13:29:24;;;;;;;;;;;;;;;29.42;38.12;94472.97;5014943;28;7230;-61
2022/07/31 13:31:53;;;;;;;;;;;;;;;29.45;37.73;94473.94;5014357;28;7531;-61
2022/07/31 13:34:31;;;;;;;;;;;;;;;29.45;38.25;94466.34;5031611;28;7081;-61
2022/07/31 13:37:30;;;;;;;;;;;;;;;29.45;37.62;94458.03;5029558;28;7100;-61
2022/07/31 13:40:09;;;;;;;;;;;;;;;29.45;38.18;94462.84;5009266;28;6965;-61